Gaston, North Carolina
Current Conditions -  °F | °C
As of 11:55 AM on Monday 22 Dec 2014 (Local Time) from KIXA Reporting Station
Haze Haze  
Wind Chill: 32°   Ceiling: 500
Heat Index: 37°   Visibility: 3mi
Dew Point: 37°   Wind: 7mph
Humidity: 100%   Direction: 10°N
Pressure: 30.11"   Gusts: NA
Location:  36.5°N, 77.64°W
Report Text: KIXA 221655Z AUTO 01006KT 3SM BR OVC005 03/03 A3011 RMK AO2 P0001
Loading
Personal Weather Stations






























Interactive Weather Map New forecast layout! Learn more

10-Day Weather Forecast

Advertisements
Track Severe Weather on mobile